Time;durP1;ratioP1;P1;durP2;ratioP2;P2;SDS_P1;SDS_P2;PMS_P1;PMS_P2;Temp;Humidity;BMP_temperature;BMP_pressure;BME280_temperature;BME280_humidity;BME280_pressure;Samples;Min_cycle;Max_cycle;Signal;HPM_P1;HPM_P2
2023/12/28 00:00:15;;;;;;;0.13;0.13;;;;;;;;;;5021324;28;20045;-90
2023/12/28 00:02:41;;;;;;;0.10;0.10;;;;;;;;;;5021060;28;20041;-90
2023/12/28 00:05:07;;;;;;;0.10;0.10;;;;;;;;;;5021045;28;20040;-90
2023/12/28 00:07:33;;;;;;;0.25;0.25;;;;;;;;;;5037356;28;20047;-90
2023/12/28 00:09:59;;;;;;;0.20;0.20;;;;;;;;;;5037399;28;20385;-90
2023/12/28 00:12:25;;;;;;;0.10;0.10;;;;;;;;;;5037350;28;20084;-90
2023/12/28 00:14:51;;;;;;;0.10;0.10;;;;;;;;;;5020711;28;20090;-90
2023/12/28 00:17:17;;;;;;;0.10;0.10;;;;;;;;;;5020639;28;20075;-90
2023/12/28 00:19:43;;;;;;;0.10;0.10;;;;;;;;;;5020297;28;20096;-90
2023/12/28 00:22:09;;;;;;;0.17;0.17;;;;;;;;;;5021119;28;20063;-90
2023/12/28 00:24:35;;;;;;;0.10;0.10;;;;;;;;;;5020584;28;20039;-90
2023/12/28 00:27:01;;;;;;;0.10;0.10;;;;;;;;;;5036847;28;20041;-91
2023/12/28 00:29:28;;;;;;;0.10;0.10;;;;;;;;;;5020322;28;20547;-91
2023/12/28 00:31:57;;;;;;;0.10;0.10;;;;;;;;;;5053790;28;20066;-91
2023/12/28 00:34:23;;;;;;;0.10;0.10;;;;;;;;;;5036959;28;20120;-90
2023/12/28 00:36:49;;;;;;;0.20;0.20;;;;;;;;;;5019876;28;20120;-90
2023/12/28 00:39:15;;;;;;;0.10;0.10;;;;;;;;;;5020283;28;20047;-90
2023/12/28 00:41:41;;;;;;;0.10;0.10;;;;;;;;;;5036659;28;20041;-91
2023/12/28 00:44:09;;;;;;;0.10;0.10;;;;;;;;;;5036838;28;20049;-90
2023/12/28 00:46:35;;;;;;;0.10;0.10;;;;;;;;;;5020472;28;20127;-91
2023/12/28 00:49:01;;;;;;;0.10;0.10;;;;;;;;;;5020040;28;20041;-90
2023/12/28 00:51:27;;;;;;;0.10;0.10;;;;;;;;;;5036988;28;20037;-90
2023/12/28 00:53:53;;;;;;;0.10;0.10;;;;;;;;;;5036802;28;20044;-90
2023/12/28 00:56:21;;;;;;;0.20;0.20;;;;;;;;;;5020100;28;20041;-90
2023/12/28 00:58:47;;;;;;;0.20;0.20;;;;;;;;;;5036861;28;20399;-90
2023/12/28 01:01:13;;;;;;;0.20;0.20;;;;;;;;;;5019744;28;20037;-91
2023/12/28 01:03:39;;;;;;;0.20;0.20;;;;;;;;;;5020167;28;20045;-90
2023/12/28 01:06:08;;;;;;;0.20;0.20;;;;;;;;;;5036482;28;20044;-90
2023/12/28 01:08:34;;;;;;;0.10;0.10;;;;;;;;;;5036145;28;20103;-90
2023/12/28 01:11:00;;;;;;;0.20;0.20;;;;;;;;;;5036012;28;20032;-90
2023/12/28 01:13:28;;;;;;;0.10;0.10;;;;;;;;;;5019701;28;20033;-91
2023/12/28 01:15:54;;;;;;;1.75;0.35;;;;;;;;;;5036468;28;20044;-90
2023/12/28 01:18:20;;;;;;;0.10;0.10;;;;;;;;;;5019701;28;20037;-91
2023/12/28 01:20:46;;;;;;;0.10;0.10;;;;;;;;;;5019709;28;20431;-90
2023/12/28 01:23:12;;;;;;;0.20;0.20;;;;;;;;;;5036032;28;20103;-90
2023/12/28 01:25:38;;;;;;;0.10;0.10;;;;;;;;;;5036302;28;20082;-90
2023/12/28 01:28:04;;;;;;;0.10;0.10;;;;;;;;;;5019091;28;20052;-91
2023/12/28 01:30:30;;;;;;;0.20;0.20;;;;;;;;;;5035641;28;20052;-90
2023/12/28 01:32:59;;;;;;;0.15;0.15;;;;;;;;;;5025122;28;20040;-96
2023/12/28 01:35:25;;;;;;;0.10;0.10;;;;;;;;;;5019859;28;20033;-91
2023/12/28 01:37:51;;;;;;;0.30;0.30;;;;;;;;;;5020117;28;20048;-91
2023/12/28 01:40:17;;;;;;;0.10;0.10;;;;;;;;;;5020016;28;20047;-91
2023/12/28 01:42:43;;;;;;;0.13;0.13;;;;;;;;;;5019659;28;20036;-91
2023/12/28 01:45:09;;;;;;;0.15;0.15;;;;;;;;;;5019810;28;20047;-91
2023/12/28 01:47:35;;;;;;;0.40;0.40;;;;;;;;;;5035597;28;20374;-92
2023/12/28 01:50:01;;;;;;;0.10;0.10;;;;;;;;;;5019005;28;20045;-92
2023/12/28 01:52:28;;;;;;;0.10;0.10;;;;;;;;;;5019558;28;20043;-90
2023/12/28 01:54:54;;;;;;;0.10;0.10;;;;;;;;;;5019410;28;20036;-90
2023/12/28 01:57:20;;;;;;;0.10;0.10;;;;;;;;;;5036159;28;20487;-92
2023/12/28 01:59:46;;;;;;;0.20;0.20;;;;;;;;;;5019080;28;20095;-92
2023/12/28 02:02:12;;;;;;;0.10;0.10;;;;;;;;;;5051912;28;20503;-90
2023/12/28 02:04:38;;;;;;;0.10;0.10;;;;;;;;;;5019433;28;20048;-91
2023/12/28 02:07:06;;;;;;;0.20;0.20;;;;;;;;;;5018940;28;20369;-90
2023/12/28 02:09:32;;;;;;;0.10;0.10;;;;;;;;;;5018911;28;20041;-91
2023/12/28 02:11:58;;;;;;;0.10;0.10;;;;;;;;;;5035662;28;20377;-90
2023/12/28 02:14:24;;;;;;;0.10;0.10;;;;;;;;;;5035575;28;20040;-90
2023/12/28 02:17:14;;;;;;;0.17;0.17;;;;;;;;;;5051913;28;20071;-90
2023/12/28 02:19:43;;;;;;;0.10;0.10;;;;;;;;;;5018807;28;20132;-91
2023/12/28 02:22:09;;;;;;;0.10;0.10;;;;;;;;;;5019168;28;20202;-91
2023/12/28 02:24:54;;;;;;;0.20;0.20;;;;;;;;;;5019067;28;20037;-90
2023/12/28 02:27:20;;;;;;;0.20;0.20;;;;;;;;;;5035301;28;20052;-90
2023/12/28 02:29:46;;;;;;;0.10;0.10;;;;;;;;;;5034811;28;20041;-90
2023/12/28 02:32:12;;;;;;;0.10;0.10;;;;;;;;;;5018264;28;20037;-90
2023/12/28 02:34:38;;;;;;;0.10;0.10;;;;;;;;;;5018397;28;20143;-90
2023/12/28 02:37:04;;;;;;;0.10;0.10;;;;;;;;;;5018787;28;20063;-90
2023/12/28 02:39:30;;;;;;;0.10;0.10;;;;;;;;;;5018360;28;20071;-90
2023/12/28 02:41:56;;;;;;;0.10;0.10;;;;;;;;;;5018176;28;20193;-90
2023/12/28 02:44:22;;;;;;;2.28;0.25;;;;;;;;;;5018309;28;20044;-91
2023/12/28 02:46:48;;;;;;;0.20;0.20;;;;;;;;;;5034700;28;20270;-91
2023/12/28 02:49:15;;;;;;;0.10;0.10;;;;;;;;;;5034635;28;20476;-90
2023/12/28 02:51:42;;;;;;;0.20;0.20;;;;;;;;;;5018256;28;20037;-90
2023/12/28 02:54:08;;;;;;;0.10;0.10;;;;;;;;;;5018323;28;20041;-90
2023/12/28 02:56:35;;;;;;;0.10;0.10;;;;;;;;;;5018473;28;20344;-90
2023/12/28 02:59:01;;;;;;;0.10;0.10;;;;;;;;;;5018412;28;20503;-91
2023/12/28 03:01:28;;;;;;;0.10;0.10;;;;;;;;;;5038368;28;20045;-90
2023/12/28 03:03:54;;;;;;;0.10;0.10;;;;;;;;;;5022538;28;20044;-91
2023/12/28 03:06:20;;;;;;;0.20;0.20;;;;;;;;;;5038905;28;20044;-90
2023/12/28 03:08:46;;;;;;;0.10;0.10;;;;;;;;;;5038440;28;20074;-90
2023/12/28 03:11:12;;;;;;;0.10;0.10;;;;;;;;;;5022001;28;20179;-89
2023/12/28 03:13:38;;;;;;;0.10;0.10;;;;;;;;;;5022298;28;20042;-90
2023/12/28 03:16:04;;;;;;;0.10;0.10;;;;;;;;;;5038574;28;20044;-89
2023/12/28 03:18:30;;;;;;;0.20;0.20;;;;;;;;;;5055010;28;20041;-90
2023/12/28 03:20:56;;;;;;;5.78;0.30;;;;;;;;;;5054786;28;20138;-90
2023/12/28 03:23:22;;;;;;;0.10;0.10;;;;;;;;;;5038436;28;20095;-90
2023/12/28 03:25:48;;;;;;;0.10;0.10;;;;;;;;;;5022214;28;20045;-90
2023/12/28 03:28:15;;;;;;;0.10;0.10;;;;;;;;;;5021572;28;20377;-90
2023/12/28 03:30:41;;;;;;;0.20;0.20;;;;;;;;;;5038405;28;20132;-90
2023/12/28 03:33:07;;;;;;;0.10;0.10;;;;;;;;;;5038438;28;20488;-90
2023/12/28 03:35:33;;;;;;;0.15;0.15;;;;;;;;;;5038350;28;20073;-90
2023/12/28 03:37:59;;;;;;;0.20;0.20;;;;;;;;;;5038056;28;20048;-90
2023/12/28 03:40:25;;;;;;;0.10;0.10;;;;;;;;;;5054395;28;20041;-90
2023/12/28 03:42:51;;;;;;;0.10;0.10;;;;;;;;;;5037758;28;20484;-92
2023/12/28 03:45:17;;;;;;;0.10;0.10;;;;;;;;;;5038048;28;20128;-90
2023/12/28 03:47:43;;;;;;;0.38;0.38;;;;;;;;;;5021812;28;20400;-91
2023/12/28 03:50:09;;;;;;;0.10;0.10;;;;;;;;;;5021492;28;20049;-91
2023/12/28 03:52:35;;;;;;;0.20;0.20;;;;;;;;;;5022025;28;20041;-91
2023/12/28 03:55:01;;;;;;;0.10;0.10;;;;;;;;;;5038247;28;20503;-91
2023/12/28 03:57:27;;;;;;;0.35;0.32;;;;;;;;;;5037994;28;20041;-92
2023/12/28 03:59:53;;;;;;;0.30;0.30;;;;;;;;;;5021707;28;20036;-92
2023/12/28 04:02:20;;;;;;;0.10;0.10;;;;;;;;;;5021912;28;20045;-92
2023/12/28 04:04:46;;;;;;;0.30;0.30;;;;;;;;;;5037928;28;20087;-92
2023/12/28 04:07:12;;;;;;;0.30;0.30;;;;;;;;;;5037870;28;20041;-92
2023/12/28 04:09:38;;;;;;;0.10;0.10;;;;;;;;;;5021543;28;20040;-93
2023/12/28 04:12:04;;;;;;;0.10;0.10;;;;;;;;;;5036428;28;20059;-92
2023/12/28 04:14:30;;;;;;;0.10;0.10;;;;;;;;;;5037461;28;20072;-89
2023/12/28 04:16:56;;;;;;;0.20;0.20;;;;;;;;;;5020790;28;20079;-91
2023/12/28 04:19:22;;;;;;;0.10;0.10;;;;;;;;;;5037316;28;20475;-90
2023/12/28 04:21:48;;;;;;;0.10;0.10;;;;;;;;;;5037075;28;20045;-91
2023/12/28 04:24:14;;;;;;;0.10;0.10;;;;;;;;;;5020974;28;20140;-89
2023/12/28 04:26:40;;;;;;;0.15;0.15;;;;;;;;;;5037151;28;20045;-91
2023/12/28 04:29:07;;;;;;;0.10;0.10;;;;;;;;;;5020936;28;20127;-91
2023/12/28 04:31:33;;;;;;;0.10;0.10;;;;;;;;;;5021043;28;20037;-91
2023/12/28 04:33:59;;;;;;;0.20;0.20;;;;;;;;;;5037360;28;20044;-92
2023/12/28 04:36:25;;;;;;;0.10;0.10;;;;;;;;;;5021369;28;20507;-93
2023/12/28 04:38:51;;;;;;;0.10;0.10;;;;;;;;;;5021164;28;20041;-92
2023/12/28 04:41:17;;;;;;;0.10;0.10;;;;;;;;;;5020520;28;20048;-92
2023/12/28 04:43:43;;;;;;;0.10;0.10;;;;;;;;;;5020902;28;20049;-91
2023/12/28 04:46:09;;;;;;;0.20;0.20;;;;;;;;;;5021184;28;20383;-92
2023/12/28 04:48:35;;;;;;;0.10;0.10;;;;;;;;;;5037331;28;20044;-92
2023/12/28 04:51:02;;;;;;;0.20;0.20;;;;;;;;;;5037164;28;20403;-92
2023/12/28 04:53:29;;;;;;;0.20;0.20;;;;;;;;;;5020540;28;20090;-91
2023/12/28 04:55:56;;;;;;;0.10;0.10;;;;;;;;;;5020447;28;20048;-92
2023/12/28 04:58:22;;;;;;;0.20;0.20;;;;;;;;;;5036951;28;20037;-92
2023/12/28 05:00:48;;;;;;;0.10;0.10;;;;;;;;;;5037227;28;20076;-92
2023/12/28 05:03:14;;;;;;;0.28;0.25;;;;;;;;;;5036795;28;20055;-91
2023/12/28 05:05:40;;;;;;;0.10;0.10;;;;;;;;;;5020815;28;20037;-91
2023/12/28 05:08:06;;;;;;;0.10;0.10;;;;;;;;;;5037022;28;20069;-91
2023/12/28 05:10:32;;;;;;;0.10;0.10;;;;;;;;;;5036681;28;20252;-92
2023/12/28 05:12:58;;;;;;;0.20;0.20;;;;;;;;;;5037008;28;20543;-92
2023/12/28 05:15:24;;;;;;;0.20;0.20;;;;;;;;;;5020504;28;20079;-92
2023/12/28 05:17:50;;;;;;;0.10;0.10;;;;;;;;;;5036621;28;20045;-91
2023/12/28 05:20:17;;;;;;;0.10;0.10;;;;;;;;;;5019923;28;20051;-92
2023/12/28 05:22:43;;;;;;;0.68;0.32;;;;;;;;;;5036580;28;20070;-93
2023/12/28 05:25:09;;;;;;;0.20;0.20;;;;;;;;;;5036773;28;20041;-90
2023/12/28 05:27:35;;;;;;;0.10;0.10;;;;;;;;;;5019815;28;20033;-90
2023/12/28 05:30:01;;;;;;;0.20;0.20;;;;;;;;;;5019425;28;20337;-90
2023/12/28 05:32:27;;;;;;;0.20;0.15;;;;;;;;;;5019598;28;20104;-91
2023/12/28 05:34:53;;;;;;;0.10;0.10;;;;;;;;;;5019952;28;20032;-92
2023/12/28 05:37:44;;;;;;;0.10;0.10;;;;;;;;;;5042840;28;20059;-95
2023/12/28 05:40:11;;;;;;;0.10;0.10;;;;;;;;;;5037078;28;20179;-89
2023/12/28 05:42:37;;;;;;;0.20;0.20;;;;;;;;;;5019760;28;20392;-91
2023/12/28 05:45:03;;;;;;;0.10;0.10;;;;;;;;;;5052755;28;20504;-91
2023/12/28 05:47:29;;;;;;;0.10;0.10;;;;;;;;;;5019205;28;20120;-90
2023/12/28 05:49:55;;;;;;;0.10;0.10;;;;;;;;;;5019151;28;20175;-91
2023/12/28 05:52:21;;;;;;;0.10;0.10;;;;;;;;;;5019290;28;20411;-92
2023/12/28 05:54:50;;;;;;;0.10;0.10;;;;;;;;;;5035841;28;20123;-92
2023/12/28 05:57:16;;;;;;;0.85;0.85;;;;;;;;;;5035975;28;20041;-92
2023/12/28 05:59:42;;;;;;;0.20;0.20;;;;;;;;;;5019262;28;20124;-92
2023/12/28 06:02:08;;;;;;;0.90;0.20;;;;;;;;;;5035674;28;20076;-91
2023/12/28 06:04:35;;;;;;;0.10;0.10;;;;;;;;;;5019400;28;20033;-89
2023/12/28 06:07:02;;;;;;;0.10;0.10;;;;;;;;;;5036124;28;20055;-89
2023/12/28 06:09:28;;;;;;;0.30;0.30;;;;;;;;;;5035937;28;20408;-89
2023/12/28 06:11:54;;;;;;;0.10;0.10;;;;;;;;;;5019563;28;20041;-90
2023/12/28 06:14:20;;;;;;;0.10;0.10;;;;;;;;;;5019139;28;20091;-90
2023/12/28 06:16:46;;;;;;;0.10;0.10;;;;;;;;;;5035550;28;20041;-90
2023/12/28 06:19:12;;;;;;;4.38;3.33;;;;;;;;;;5019220;28;20045;-91
2023/12/28 06:21:39;;;;;;;0.10;0.10;;;;;;;;;;5035554;28;20568;-89
2023/12/28 06:24:05;;;;;;;0.22;0.22;;;;;;;;;;5035884;28;20388;-91
2023/12/28 06:26:31;;;;;;;0.20;0.20;;;;;;;;;;5035693;28;20498;-92
2023/12/28 06:28:57;;;;;;;0.10;0.10;;;;;;;;;;5035268;28;20037;-90
2023/12/28 06:31:23;;;;;;;0.10;0.10;;;;;;;;;;5019201;28;20067;-89
2023/12/28 06:33:49;;;;;;;0.10;0.10;;;;;;;;;;5017994;28;20468;-89
2023/12/28 06:36:18;;;;;;;0.20;0.20;;;;;;;;;;5018218;28;20086;-88
2023/12/28 06:38:44;;;;;;;0.10;0.10;;;;;;;;;;5019046;28;20463;-88
2023/12/28 06:41:14;;;;;;;0.10;0.10;;;;;;;;;;5018437;28;20048;-89
2023/12/28 06:43:40;;;;;;;0.10;0.10;;;;;;;;;;5034816;28;20047;-89
2023/12/28 06:46:06;;;;;;;0.20;0.20;;;;;;;;;;5035335;28;20049;-88
2023/12/28 06:48:32;;;;;;;0.10;0.10;;;;;;;;;;5018102;28;20041;-88
2023/12/28 06:50:58;;;;;;;0.10;0.10;;;;;;;;;;5018457;28;20384;-88
2023/12/28 06:53:24;;;;;;;0.10;0.10;;;;;;;;;;5018067;28;20044;-89
2023/12/28 06:55:50;;;;;;;0.10;0.10;;;;;;;;;;5018429;28;20037;-89
2023/12/28 06:58:16;;;;;;;0.10;0.10;;;;;;;;;;5034834;28;20084;-88
2023/12/28 07:00:43;;;;;;;0.20;0.20;;;;;;;;;;5034415;28;20037;-88
2023/12/28 07:03:09;;;;;;;0.10;0.10;;;;;;;;;;5034318;28;20045;-88
2023/12/28 07:05:35;;;;;;;0.10;0.10;;;;;;;;;;5034452;28;20069;-88
2023/12/28 07:08:01;;;;;;;0.10;0.10;;;;;;;;;;5034821;28;20126;-88
2023/12/28 07:10:27;;;;;;;0.15;0.15;;;;;;;;;;5034035;28;20068;-89
2023/12/28 07:12:53;;;;;;;0.10;0.10;;;;;;;;;;5018386;28;20043;-88
2023/12/28 07:15:19;;;;;;;1.25;0.20;;;;;;;;;;5034746;28;20410;-89
2023/12/28 07:17:45;;;;;;;0.10;0.10;;;;;;;;;;5018270;28;20552;-89
2023/12/28 07:20:11;;;;;;;0.10;0.10;;;;;;;;;;5034145;28;20503;-88
2023/12/28 07:22:38;;;;;;;0.10;0.10;;;;;;;;;;5034549;28;20550;-89
2023/12/28 07:25:07;;;;;;;0.10;0.10;;;;;;;;;;5034475;28;20044;-87
2023/12/28 07:27:33;;;;;;;0.20;0.20;;;;;;;;;;5048767;28;20041;-88
2023/12/28 07:30:01;;;;;;;0.75;0.75;;;;;;;;;;5015034;28;20433;-89
2023/12/28 07:32:27;;;;;;;0.10;0.10;;;;;;;;;;5016799;28;20037;-88
2023/12/28 07:34:53;;;;;;;0.10;0.10;;;;;;;;;;5014293;28;20071;-92
2023/12/28 07:37:19;;;;;;;0.22;0.22;;;;;;;;;;5014403;28;20458;-90
2023/12/28 07:39:46;;;;;;;0.10;0.10;;;;;;;;;;4998402;28;20499;-89
2023/12/28 07:42:12;;;;;;;0.30;0.30;;;;;;;;;;4998311;28;20037;-89
2023/12/28 07:44:38;;;;;;;0.45;0.45;;;;;;;;;;4998228;28;20041;-87
2023/12/28 07:47:04;;;;;;;0.10;0.10;;;;;;;;;;4999736;28;20042;-88
2023/12/28 07:49:31;;;;;;;0.70;0.30;;;;;;;;;;5018308;28;20042;-89
2023/12/28 07:51:57;;;;;;;0.10;0.10;;;;;;;;;;5001703;28;20041;-88
2023/12/28 07:54:23;;;;;;;0.10;0.10;;;;;;;;;;5001736;28;20072;-89
2023/12/28 07:56:50;;;;;;;0.10;0.10;;;;;;;;;;5018097;28;20049;-90
2023/12/28 07:59:17;;;;;;;0.10;0.10;;;;;;;;;;5001725;28;20128;-89
2023/12/28 08:01:43;;;;;;;0.10;0.10;;;;;;;;;;5017809;28;20049;-88
2023/12/28 08:04:12;;;;;;;0.20;0.20;;;;;;;;;;5028628;28;20399;-87
2023/12/28 08:06:39;;;;;;;0.13;0.13;;;;;;;;;;5021010;28;20044;-88
2023/12/28 08:09:05;;;;;;;1.10;0.57;;;;;;;;;;5053767;28;20411;-88
2023/12/28 08:11:31;;;;;;;0.15;0.15;;;;;;;;;;5037140;28;20037;-88
2023/12/28 08:13:57;;;;;;;0.15;0.15;;;;;;;;;;5037229;28;20040;-88
2023/12/28 08:16:23;;;;;;;0.65;0.55;;;;;;;;;;5020806;28;20075;-89
2023/12/28 08:18:49;;;;;;;0.10;0.10;;;;;;;;;;5021093;28;20045;-89
2023/12/28 08:21:15;;;;;;;0.10;0.10;;;;;;;;;;5025835;28;20128;-94
2023/12/28 08:23:41;;;;;;;0.10;0.10;;;;;;;;;;5017808;28;20049;-89
2023/12/28 08:26:07;;;;;;;0.10;0.10;;;;;;;;;;5017073;28;20396;-87
2023/12/28 08:28:33;;;;;;;0.20;0.20;;;;;;;;;;5016656;28;20046;-87
2023/12/28 08:30:59;;;;;;;0.30;0.30;;;;;;;;;;5016893;28;20034;-88
2023/12/28 08:33:25;;;;;;;0.10;0.10;;;;;;;;;;5016845;28;20033;-86
2023/12/28 08:35:51;;;;;;;0.10;0.10;;;;;;;;;;5033482;28;20083;-87
2023/12/28 08:38:17;;;;;;;0.10;0.10;;;;;;;;;;5016270;28;20044;-93
2023/12/28 08:40:44;;;;;;;0.10;0.10;;;;;;;;;;5016902;28;20041;-89
2023/12/28 08:43:10;;;;;;;0.52;0.52;;;;;;;;;;5002476;28;20087;-88
2023/12/28 08:45:37;;;;;;;0.10;0.10;;;;;;;;;;5020817;28;20048;-89
2023/12/28 08:48:03;;;;;;;0.10;0.10;;;;;;;;;;5037868;28;20449;-89
2023/12/28 08:50:29;;;;;;;0.10;0.10;;;;;;;;;;5001316;28;20523;-87
2023/12/28 08:52:56;;;;;;;0.10;0.10;;;;;;;;;;5033287;28;20045;-86
2023/12/28 08:55:22;;;;;;;0.20;0.20;;;;;;;;;;5016337;28;20041;-86
2023/12/28 08:57:48;;;;;;;0.10;0.10;;;;;;;;;;5015508;28;20099;-87
2023/12/28 09:00:16;;;;;;;0.13;0.13;;;;;;;;;;5016507;28;20131;-90
2023/12/28 09:02:42;;;;;;;0.10;0.10;;;;;;;;;;5000560;28;20049;-90
2023/12/28 09:05:09;;;;;;;3.10;0.25;;;;;;;;;;5016118;28;20041;-88
2023/12/28 09:07:38;;;;;;;0.20;0.20;;;;;;;;;;4999914;28;20041;-87
2023/12/28 09:10:04;;;;;;;0.15;0.15;;;;;;;;;;5016214;28;20120;-88
2023/12/28 09:12:30;;;;;;;1.55;0.38;;;;;;;;;;5032851;28;20313;-89
2023/12/28 09:14:56;;;;;;;0.13;0.13;;;;;;;;;;4999612;28;20041;-88
2023/12/28 09:17:23;;;;;;;0.10;0.10;;;;;;;;;;5016215;28;20073;-88
2023/12/28 09:19:49;;;;;;;0.10;0.10;;;;;;;;;;5015813;28;20087;-88
2023/12/28 09:22:15;;;;;;;0.20;0.20;;;;;;;;;;5016192;28;20049;-91
2023/12/28 09:24:42;;;;;;;0.10;0.10;;;;;;;;;;5015858;28;20037;-85
2023/12/28 09:27:08;;;;;;;0.20;0.20;;;;;;;;;;5015666;28;20045;-87
2023/12/28 09:29:35;;;;;;;0.10;0.10;;;;;;;;;;5015651;28;20523;-86
2023/12/28 09:32:01;;;;;;;0.47;0.47;;;;;;;;;;4999235;28;20063;-87
2023/12/28 09:34:27;;;;;;;4.22;0.40;;;;;;;;;;5015504;28;20481;-87
2023/12/28 09:36:53;;;;;;;0.20;0.20;;;;;;;;;;4999315;28;20033;-86
2023/12/28 09:39:19;;;;;;;0.10;0.10;;;;;;;;;;4999020;28;20404;-86
2023/12/28 09:41:47;;;;;;;0.10;0.10;;;;;;;;;;5015652;28;20053;-86
2023/12/28 09:44:13;;;;;;;0.10;0.10;;;;;;;;;;5015393;28;20041;-88
2023/12/28 09:46:42;;;;;;;0.10;0.10;;;;;;;;;;5015485;28;20060;-87
2023/12/28 09:49:09;;;;;;;0.57;0.45;;;;;;;;;;4999076;28;20053;-88
2023/12/28 09:51:35;;;;;;;0.15;0.15;;;;;;;;;;5015310;28;20135;-86
2023/12/28 09:54:02;;;;;;;0.10;0.10;;;;;;;;;;5016299;28;20360;-92
2023/12/28 09:56:28;;;;;;;0.10;0.10;;;;;;;;;;5015395;28;20485;-88
2023/12/28 09:58:55;;;;;;;0.20;0.20;;;;;;;;;;5031774;28;20046;-88
2023/12/28 10:01:21;;;;;;;0.10;0.10;;;;;;;;;;5015508;28;20492;-88
2023/12/28 10:03:47;;;;;;;0.20;0.20;;;;;;;;;;5015233;28;20056;-89
2023/12/28 10:06:15;;;;;;;0.10;0.10;;;;;;;;;;4998878;28;20041;-88
2023/12/28 10:08:47;;;;;;;0.30;0.30;;;;;;;;;;5014853;28;20396;-88
2023/12/28 10:11:14;;;;;;;0.10;0.10;;;;;;;;;;5015236;28;20046;-88
2023/12/28 10:13:40;;;;;;;0.10;0.10;;;;;;;;;;5015325;28;20041;-87
2023/12/28 10:16:08;;;;;;;0.15;0.15;;;;;;;;;;5014906;28;20056;-86
2023/12/28 10:18:35;;;;;;;0.10;0.10;;;;;;;;;;4998595;28;20122;-85
2023/12/28 10:21:01;;;;;;;0.10;0.10;;;;;;;;;;5014503;28;20057;-87
2023/12/28 10:23:27;;;;;;;0.10;0.10;;;;;;;;;;5014956;28;20095;-87
2023/12/28 10:25:56;;;;;;;0.10;0.10;;;;;;;;;;5014767;28;20503;-87
2023/12/28 10:28:22;;;;;;;0.10;0.10;;;;;;;;;;4998218;28;20045;-86
2023/12/28 10:30:48;;;;;;;0.10;0.10;;;;;;;;;;5030817;28;20041;-88
2023/12/28 10:33:15;;;;;;;0.38;0.20;;;;;;;;;;5014727;28;20072;-88
2023/12/28 10:35:41;;;;;;;0.10;0.10;;;;;;;;;;4998229;28;20374;-87
2023/12/28 10:38:07;;;;;;;0.10;0.10;;;;;;;;;;4998363;28;20041;-90
2023/12/28 10:40:36;;;;;;;0.10;0.10;;;;;;;;;;5014473;28;20148;-87
2023/12/28 10:43:04;;;;;;;0.20;0.20;;;;;;;;;;4998469;28;20076;-86
2023/12/28 10:45:33;;;;;;;0.10;0.10;;;;;;;;;;5014488;28;20128;-84
2023/12/28 10:48:03;;;;;;;1.33;1.23;;;;;;;;;;5014541;28;20056;-86
2023/12/28 10:50:29;;;;;;;0.32;0.32;;;;;;;;;;5014481;28;20160;-87
2023/12/28 10:52:57;;;;;;;0.40;0.22;;;;;;;;;;5032078;28;20143;-86
2023/12/28 10:55:30;;;;;;;0.10;0.10;;;;;;;;;;5033971;28;20064;-86
2023/12/28 10:58:20;;;;;;;0.10;0.10;;;;;;;;;;5032517;28;20037;-87
2023/12/28 11:00:48;;;;;;;5.03;1.38;;;;;;;;;;5025166;28;20489;-86
2023/12/28 11:03:15;;;;;;;0.15;0.15;;;;;;;;;;4997888;28;20045;-87
2023/12/28 11:05:41;;;;;;;0.10;0.10;;;;;;;;;;5014091;28;20500;-86
2023/12/28 11:08:07;;;;;;;0.10;0.10;;;;;;;;;;5014600;28;20404;-86
2023/12/28 11:10:33;;;;;;;0.30;0.30;;;;;;;;;;4997469;28;20073;-89
2023/12/28 11:12:59;;;;;;;4.75;0.50;;;;;;;;;;4997804;28;20122;-87
2023/12/28 11:15:26;;;;;;;0.10;0.10;;;;;;;;;;5017258;28;20038;-86
2023/12/28 11:17:52;;;;;;;0.10;0.10;;;;;;;;;;5025125;28;20155;-86
2023/12/28 11:20:19;;;;;;;1.92;0.45;;;;;;;;;;5053402;28;20067;-86
2023/12/28 11:22:44;;;;;;;0.52;0.20;;;;;;;;;;5054039;28;20052;-86
2023/12/28 11:25:18;;;;;;;0.30;0.30;;;;;;;;;;5037485;28;20041;-86
2023/12/28 11:27:44;;;;;;;0.85;0.85;;;;;;;;;;5034556;28;20037;-86
2023/12/28 11:30:10;;;;;;;0.10;0.10;;;;;;;;;;5017628;28;20048;-86
2023/12/28 11:32:37;;;;;;;0.10;0.10;;;;;;;;;;5016613;28;20037;-85
2023/12/28 11:35:03;;;;;;;0.20;0.20;;;;;;;;;;5015661;28;20047;-85
2023/12/28 11:37:30;;;;;;;0.10;0.10;;;;;;;;;;5038753;28;20041;-86
2023/12/28 11:40:01;;;;;;;0.10;0.10;;;;;;;;;;5037509;28;20041;-85
2023/12/28 11:42:27;;;;;;;0.30;0.30;;;;;;;;;;5037853;28;20064;-86
2023/12/28 11:44:54;;;;;;;0.30;0.30;;;;;;;;;;5034769;28;20322;-86
2023/12/28 11:47:24;;;;;;;0.10;0.10;;;;;;;;;;5000981;28;20053;-86
2023/12/28 11:49:54;;;;;;;0.10;0.10;;;;;;;;;;5017473;28;20556;-86
2023/12/28 11:52:23;;;;;;;0.10;0.10;;;;;;;;;;5017979;28;20045;-86
2023/12/28 11:54:49;;;;;;;0.10;0.10;;;;;;;;;;5033695;28;20411;-86
2023/12/28 11:57:16;;;;;;;0.10;0.10;;;;;;;;;;5017321;28;20037;-86
2023/12/28 11:59:43;;;;;;;0.10;0.10;;;;;;;;;;5017095;28;20042;-87
2023/12/28 12:02:09;;;;;;;0.20;0.20;;;;;;;;;;5017607;28;20547;-86
2023/12/28 12:04:35;;;;;;;0.10;0.10;;;;;;;;;;5017193;28;20513;-86
2023/12/28 12:07:03;;;;;;;0.10;0.10;;;;;;;;;;5000747;28;20107;-86
2023/12/28 12:09:34;;;;;;;0.20;0.20;;;;;;;;;;5016766;28;20049;-86
2023/12/28 12:12:00;;;;;;;0.10;0.10;;;;;;;;;;5016958;28;20033;-86
2023/12/28 12:14:26;;;;;;;0.20;0.20;;;;;;;;;;5017199;28;20041;-86
2023/12/28 12:16:52;;;;;;;1.92;1.00;;;;;;;;;;5016922;28;20498;-87
2023/12/28 12:19:18;;;;;;;0.20;0.20;;;;;;;;;;5000780;28;20045;-86
2023/12/28 12:21:44;;;;;;;0.10;0.10;;;;;;;;;;5032892;28;20083;-87
2023/12/28 12:24:11;;;;;;;0.10;0.10;;;;;;;;;;5017080;28;20045;-88
2023/12/28 12:26:37;;;;;;;0.10;0.10;;;;;;;;;;5000560;28;20083;-87
2023/12/28 12:29:03;;;;;;;0.13;0.13;;;;;;;;;;5016821;28;20073;-87
2023/12/28 12:31:29;;;;;;;2.45;0.63;;;;;;;;;;5017255;28;20502;-88
2023/12/28 12:33:55;;;;;;;2.75;0.57;;;;;;;;;;5016095;28;20137;-87
2023/12/28 12:36:21;;;;;;;0.10;0.10;;;;;;;;;;5000416;28;20511;-87
2023/12/28 12:38:48;;;;;;;0.32;0.30;;;;;;;;;;5033259;28;20041;-87
2023/12/28 12:41:14;;;;;;;0.10;0.10;;;;;;;;;;5016958;28;20404;-88
2023/12/28 12:43:43;;;;;;;0.10;0.10;;;;;;;;;;5016591;28;20040;-86
2023/12/28 12:46:09;;;;;;;0.10;0.10;;;;;;;;;;5017014;28;20044;-86
2023/12/28 12:48:35;;;;;;;0.10;0.10;;;;;;;;;;5000168;28;20037;-87
2023/12/28 12:51:04;;;;;;;0.20;0.20;;;;;;;;;;5029014;28;20037;-87
2023/12/28 12:53:34;;;;;;;0.77;0.55;;;;;;;;;;5036368;28;20072;-87
2023/12/28 12:56:00;;;;;;;0.10;0.10;;;;;;;;;;5036623;28;20029;-87
2023/12/28 12:58:27;;;;;;;0.20;0.20;;;;;;;;;;5036269;28;20390;-87
2023/12/28 13:00:53;;;;;;;0.15;0.15;;;;;;;;;;5036349;28;20041;-88
2023/12/28 13:03:20;;;;;;;0.10;0.10;;;;;;;;;;5019524;28;20133;-87
2023/12/28 13:05:46;;;;;;;0.10;0.10;;;;;;;;;;5052380;28;20037;-86
2023/12/28 13:08:13;;;;;;;0.10;0.10;;;;;;;;;;5019475;28;20033;-86
2023/12/28 13:10:39;;;;;;;0.10;0.10;;;;;;;;;;5052356;28;20127;-86
2023/12/28 13:13:07;;;;;;;1.48;0.30;;;;;;;;;;5019515;28;20496;-87
2023/12/28 13:15:33;;;;;;;0.10;0.10;;;;;;;;;;5052454;28;20044;-87
2023/12/28 13:17:59;;;;;;;0.10;0.10;;;;;;;;;;5019532;28;20033;-87
2023/12/28 13:20:26;;;;;;;0.20;0.20;;;;;;;;;;5052063;28;20064;-87
2023/12/28 13:22:52;;;;;;;0.10;0.10;;;;;;;;;;5052046;28;20131;-87
2023/12/28 13:25:18;;;;;;;0.32;0.32;;;;;;;;;;5052035;28;20071;-86
2023/12/28 13:27:44;;;;;;;0.47;0.47;;;;;;;;;;5052027;28;20381;-86
2023/12/28 13:30:11;;;;;;;0.10;0.10;;;;;;;;;;5035212;28;20041;-86
2023/12/28 13:32:37;;;;;;;0.10;0.10;;;;;;;;;;5035440;28;20409;-85
2023/12/28 13:35:04;;;;;;;0.10;0.10;;;;;;;;;;5035313;28;20039;-86
2023/12/28 13:37:30;;;;;;;0.10;0.10;;;;;;;;;;5035284;28;20040;-87
2023/12/28 13:39:57;;;;;;;0.10;0.10;;;;;;;;;;5035360;28;20131;-87
2023/12/28 13:42:23;;;;;;;0.20;0.20;;;;;;;;;;5051783;28;20051;-86
2023/12/28 13:44:49;;;;;;;0.10;0.10;;;;;;;;;;5035010;28;20044;-86
2023/12/28 13:47:15;;;;;;;0.50;0.50;;;;;;;;;;5034794;28;20041;-86
2023/12/28 13:49:43;;;;;;;0.10;0.10;;;;;;;;;;5034941;28;20048;-86
2023/12/28 13:52:09;;;;;;;0.10;0.10;;;;;;;;;;5018718;28;20075;-86
2023/12/28 13:54:35;;;;;;;0.10;0.10;;;;;;;;;;5051640;28;20041;-86
2023/12/28 13:57:01;;;;;;;0.30;0.30;;;;;;;;;;5034926;28;20037;-87
2023/12/28 13:59:27;;;;;;;0.10;0.10;;;;;;;;;;5018317;28;20045;-88
2023/12/28 14:01:53;;;;;;;0.20;0.20;;;;;;;;;;5018899;28;20471;-89
2023/12/28 14:04:19;;;;;;;0.10;0.10;;;;;;;;;;5018521;28;20045;-87
2023/12/28 14:06:45;;;;;;;0.13;0.13;;;;;;;;;;5034876;28;20079;-87
2023/12/28 14:09:12;;;;;;;0.10;0.10;;;;;;;;;;5018441;28;20077;-89
2023/12/28 14:11:38;;;;;;;0.15;0.15;;;;;;;;;;5018364;28;20032;-87
2023/12/28 14:14:05;;;;;;;0.10;0.10;;;;;;;;;;5018711;28;20053;-87
2023/12/28 14:16:31;;;;;;;0.20;0.20;;;;;;;;;;5018115;28;20068;-86
2023/12/28 14:18:57;;;;;;;0.10;0.10;;;;;;;;;;5018350;28;20084;-87
2023/12/28 14:21:24;;;;;;;1.90;0.90;;;;;;;;;;5050686;28;20095;-86
2023/12/28 14:23:51;;;;;;;0.20;0.20;;;;;;;;;;5034487;28;20055;-87
2023/12/28 14:26:17;;;;;;;0.10;0.10;;;;;;;;;;5018165;28;20446;-89
2023/12/28 14:28:44;;;;;;;0.20;0.20;;;;;;;;;;5034245;28;20045;-87
2023/12/28 14:31:14;;;;;;;0.20;0.20;;;;;;;;;;5034415;28;20059;-86
2023/12/28 14:33:44;;;;;;;0.10;0.10;;;;;;;;;;5035675;28;20086;-86
2023/12/28 14:36:18;;;;;;;0.10;0.10;;;;;;;;;;5018128;28;20037;-87
2023/12/28 14:38:44;;;;;;;0.10;0.10;;;;;;;;;;5034373;28;20102;-88